Time;durP1;ratioP1;P1;durP2;ratioP2;P2;SDS_P1;SDS_P2;PMS_P1;PMS_P2;Temp;Humidity;BMP_temperature;BMP_pressure;BME280_temperature;BME280_humidity;BME280_pressure;Samples;Min_cycle;Max_cycle;Signal;HPM_P1;HPM_P2
2022/05/11 00:02:17;;;;;;;15.73;14.30;;;13.20;99.90;;;;;;4828834;29;20545;-64
2022/05/11 00:05:09;;;;;;;18.47;16.63;;;13.20;99.90;;;;;;4824655;29;20487;-64
2022/05/11 00:07:57;;;;;;;18.07;16.27;;;13.20;99.90;;;;;;4827771;29;20989;-65
2022/05/11 00:10:46;;;;;;;17.20;15.50;;;13.20;99.90;;;;;;4829176;29;20464;-65
2022/05/11 00:13:34;;;;;;;16.57;14.97;;;13.30;99.90;;;;;;4824866;29;20620;-64
2022/05/11 00:16:23;;;;;;;16.47;14.83;;;13.30;99.90;;;;;;4826831;29;20502;-64
2022/05/11 00:19:11;;;;;;;17.03;14.60;;;13.20;99.90;;;;;;4827636;29;20464;-64
2022/05/11 00:22:00;;;;;;;16.87;15.27;;;13.20;99.90;;;;;;4829856;29;21012;-64
2022/05/11 00:24:49;;;;;;;16.50;14.80;;;13.20;99.90;;;;;;4827880;29;20540;-64
2022/05/11 00:27:37;;;;;;;16.90;15.30;;;13.20;99.90;;;;;;4830554;29;20540;-64
2022/05/11 00:30:27;;;;;;;17.30;14.87;;;13.20;99.90;;;;;;4827062;29;20855;-65
2022/05/11 00:33:16;;;;;;;17.43;15.50;;;13.20;99.90;;;;;;4828916;29;20488;-64
2022/05/11 00:36:09;;;;;;;16.57;15.03;;;13.20;99.90;;;;;;4830897;29;21163;-65
2022/05/11 00:38:59;;;;;;;19.07;16.87;;;13.20;99.90;;;;;;4827871;29;20613;-64
2022/05/11 00:41:47;;;;;;;17.23;15.43;;;13.20;99.90;;;;;;4829290;29;20468;-64
2022/05/11 00:44:35;;;;;;;16.77;15.20;;;13.20;99.90;;;;;;4832621;29;20570;-64
2022/05/11 00:47:28;;;;;;;18.07;16.27;;;13.20;99.90;;;;;;4830487;29;20513;-64
2022/05/11 00:50:20;;;;;;;18.23;16.53;;;13.20;99.90;;;;;;4828820;29;20484;-64
2022/05/11 00:53:12;;;;;;;20.90;18.77;;;13.20;99.90;;;;;;4823284;29;21056;-65
2022/05/11 00:56:02;;;;;;;19.87;17.80;;;13.20;99.90;;;;;;4827836;29;20605;-64
2022/05/11 00:58:56;;;;;;;18.50;16.70;;;13.20;99.90;;;;;;4828501;29;20519;-65
2022/05/11 01:01:44;;;;;;;20.07;18.07;;;13.20;99.90;;;;;;4828748;29;20513;-65
2022/05/11 01:04:36;;;;;;;21.33;18.53;;;13.20;99.90;;;;;;4829771;29;20465;-64
2022/05/11 01:07:24;;;;;;;20.67;18.57;;;13.30;99.90;;;;;;4830343;29;20998;-64
2022/05/11 01:10:12;;;;;;;19.40;17.60;;;13.30;99.90;;;;;;4826733;29;20575;-64
2022/05/11 01:13:09;;;;;;;19.87;17.90;;;13.30;99.90;;;;;;4825235;29;20501;-64
2022/05/11 01:16:00;;;;;;;20.77;18.67;;;13.20;99.90;;;;;;4827860;29;20890;-65
2022/05/11 01:18:49;;;;;;;22.00;19.90;;;13.20;99.90;;;;;;4827387;29;20543;-65
2022/05/11 01:21:43;;;;;;;22.47;20.07;;;13.20;99.90;;;;;;4824743;29;20829;-64
2022/05/11 01:24:37;;;;;;;19.10;17.20;;;13.20;99.90;;;;;;4823873;29;20545;-64
2022/05/11 01:27:32;;;;;;;18.60;16.80;;;13.20;99.90;;;;;;4828777;29;20465;-65
2022/05/11 01:30:22;;;;;;;20.17;18.13;;;13.20;99.90;;;;;;4825858;29;20477;-65
2022/05/11 01:33:15;;;;;;;19.13;17.13;;;13.20;99.90;;;;;;4826100;29;20521;-64
2022/05/11 01:36:11;;;;;;;21.10;18.90;;;13.20;99.90;;;;;;4827797;29;20492;-65
2022/05/11 01:39:03;;;;;;;20.27;18.17;;;13.20;99.90;;;;;;4826973;29;20468;-64
2022/05/11 01:41:54;;;;;;;19.37;17.47;;;13.20;99.90;;;;;;4824777;29;20552;-64
2022/05/11 01:44:42;;;;;;;21.83;19.73;;;13.20;99.90;;;;;;4829248;29;20485;-65
2022/05/11 01:47:30;;;;;;;20.80;18.60;;;13.20;99.90;;;;;;4828474;29;20472;-64
2022/05/11 01:50:19;;;;;;;22.07;19.40;;;13.20;99.90;;;;;;4831345;29;20493;-64
2022/05/11 01:53:07;;;;;;;21.77;19.50;;;13.20;99.90;;;;;;4829559;29;20493;-64
2022/05/11 01:55:55;;;;;;;19.73;17.83;;;13.20;99.90;;;;;;4828213;29;20535;-64
2022/05/11 01:58:45;;;;;;;20.27;18.27;;;13.20;99.90;;;;;;4829705;29;20496;-65
2022/05/11 02:01:36;;;;;;;20.53;18.50;;;13.20;99.90;;;;;;4824091;29;21059;-64
2022/05/11 02:10:37;;;;;;;20.67;18.67;;;13.20;99.90;;;;;;4825862;29;20582;-64
2022/05/11 02:13:25;;;;;;;20.40;18.33;;;13.20;99.90;;;;;;4825787;29;20491;-65
2022/05/11 02:16:15;;;;;;;20.03;18.10;;;13.20;99.90;;;;;;4827723;29;20489;-64
2022/05/11 02:19:03;;;;;;;20.77;18.70;;;13.20;99.90;;;;;;4825483;29;21277;-64
2022/05/11 02:21:51;;;;;;;20.53;18.60;;;13.20;99.90;;;;;;4831050;29;20465;-65
2022/05/11 02:24:40;;;;;;;20.37;18.47;;;13.20;99.90;;;;;;4828849;29;20579;-64
2022/05/11 02:27:28;;;;;;;18.53;16.73;;;13.20;99.90;;;;;;4830385;29;20641;-64
2022/05/11 02:30:18;;;;;;;21.43;18.90;;;13.20;99.90;;;;;;4827990;29;20545;-64
2022/05/11 02:33:09;;;;;;;19.47;17.67;;;13.20;99.90;;;;;;4830304;29;20575;-64
2022/05/11 02:35:57;;;;;;;17.47;15.90;;;13.20;99.90;;;;;;4828272;29;20513;-65
2022/05/11 02:38:46;;;;;;;18.70;17.00;;;13.20;99.90;;;;;;4831370;29;20497;-64
2022/05/11 02:41:34;;;;;;;18.33;16.57;;;13.20;99.90;;;;;;4830668;29;20462;-64
2022/05/11 02:44:22;;;;;;;18.70;16.90;;;13.20;99.90;;;;;;4829105;29;20472;-64
2022/05/11 02:47:10;;;;;;;19.57;17.67;;;13.20;99.90;;;;;;4826158;29;20475;-64
2022/05/11 02:50:03;;;;;;;18.67;16.97;;;13.20;99.90;;;;;;4831628;29;20493;-64
2022/05/11 02:52:51;;;;;;;18.13;16.43;;;13.20;99.90;;;;;;4828029;29;20915;-65
2022/05/11 02:55:41;;;;;;;19.07;17.27;;;13.20;99.90;;;;;;4829379;29;20497;-64
2022/05/11 02:58:32;;;;;;;19.20;17.30;;;13.20;99.90;;;;;;4832550;29;20962;-64
2022/05/11 03:01:20;;;;;;;18.23;16.53;;;13.20;99.90;;;;;;4830423;29;20484;-64
2022/05/11 03:04:08;;;;;;;18.70;16.97;;;13.20;99.90;;;;;;4828700;29;20541;-64
2022/05/11 03:06:58;;;;;;;18.33;16.00;;;13.20;99.90;;;;;;4827627;29;20974;-64
2022/05/11 03:09:46;;;;;;;18.07;16.23;;;13.20;99.90;;;;;;4830332;29;20636;-64
2022/05/11 03:12:34;;;;;;;18.00;16.30;;;13.20;99.90;;;;;;4830782;29;20521;-64
2022/05/11 03:15:22;;;;;;;17.47;15.87;;;13.20;99.90;;;;;;4829969;29;20556;-69
2022/05/11 03:18:12;;;;;;;17.70;16.00;;;13.20;99.90;;;;;;4827972;29;20508;-64
2022/05/11 03:21:01;;;;;;;18.97;17.07;;;13.20;99.90;;;;;;4829364;29;20461;-64
2022/05/11 03:23:50;;;;;;;18.33;16.53;;;13.20;99.90;;;;;;4829349;29;20635;-65
2022/05/11 03:26:38;;;;;;;17.60;15.90;;;13.20;99.90;;;;;;4830231;29;20500;-65
2022/05/11 03:29:26;;;;;;;16.60;15.00;;;13.20;99.90;;;;;;4832029;29;20617;-64
2022/05/11 03:35:21;;;;;;;16.90;15.40;;;13.20;99.90;;;;;;4825450;29;20575;-64
2022/05/11 03:38:09;;;;;;;19.10;17.30;;;13.20;99.90;;;;;;4830122;29;20513;-64
2022/05/11 03:40:59;;;;;;;16.53;14.93;;;13.20;99.90;;;;;;4828070;29;20468;-64
2022/05/11 03:43:47;;;;;;;18.83;16.90;;;13.20;99.90;;;;;;4831029;29;21005;-64
2022/05/11 03:46:35;;;;;;;17.00;15.40;;;13.20;99.90;;;;;;4831338;29;20496;-64
2022/05/11 03:49:24;;;;;;;17.40;15.70;;;13.20;99.90;;;;;;4829844;29;20488;-64
2022/05/11 03:52:16;;;;;;;18.07;16.30;;;13.20;99.90;;;;;;4826759;29;20552;-64
2022/05/11 03:55:06;;;;;;;17.70;16.00;;;13.20;99.90;;;;;;4828120;29;21040;-64
2022/05/11 03:57:56;;;;;;;16.57;14.87;;;13.20;99.90;;;;;;4832714;29;20461;-64
2022/05/11 04:00:44;;;;;;;17.97;16.23;;;13.20;99.90;;;;;;4827284;29;20461;-64
2022/05/11 04:03:32;;;;;;;16.20;14.60;;;13.20;99.90;;;;;;4832141;29;20488;-65
2022/05/11 04:06:20;;;;;;;16.20;14.70;;;13.20;99.90;;;;;;4828731;29;20488;-64
2022/05/11 04:09:09;;;;;;;16.90;15.30;;;13.20;99.90;;;;;;4828487;29;20526;-65
2022/05/11 04:11:57;;;;;;;16.40;15.00;;;13.20;99.90;;;;;;4831485;29;21220;-64
2022/05/11 04:14:46;;;;;;;16.43;14.90;;;13.20;99.90;;;;;;4832631;29;20895;-65
2022/05/11 04:17:35;;;;;;;16.30;14.80;;;13.20;99.90;;;;;;4832294;29;20465;-64
2022/05/11 04:20:23;;;;;;;16.30;14.77;;;13.20;99.90;;;;;;4829737;29;20636;-65
2022/05/11 04:23:11;;;;;;;17.50;15.80;;;13.20;99.90;;;;;;4830137;29;20536;-64
2022/05/11 04:26:00;;;;;;;17.60;16.00;;;13.20;99.90;;;;;;4828326;29;20497;-65
2022/05/11 04:28:48;;;;;;;15.57;14.17;;;13.20;99.90;;;;;;4830873;29;20597;-64
2022/05/11 04:31:37;;;;;;;18.40;16.60;;;13.30;99.90;;;;;;4829470;29;21151;-64
2022/05/11 04:34:26;;;;;;;17.77;15.87;;;13.30;99.90;;;;;;4827183;29;20986;-66
2022/05/11 04:37:14;;;;;;;16.53;14.97;;;13.30;99.90;;;;;;4831585;29;20480;-64
2022/05/11 04:40:03;;;;;;;15.40;14.00;;;13.30;99.90;;;;;;4826124;29;20473;-65
2022/05/11 04:42:54;;;;;;;17.43;15.80;;;13.40;99.90;;;;;;4827659;29;20541;-65
2022/05/11 04:45:44;;;;;;;17.50;15.80;;;13.30;99.90;;;;;;4827355;29;20496;-64
2022/05/11 04:48:33;;;;;;;16.50;15.03;;;13.30;99.90;;;;;;4825874;29;20549;-64
2022/05/11 04:51:21;;;;;;;17.20;15.27;;;13.40;99.90;;;;;;4822452;29;20504;-64
2022/05/11 04:54:11;;;;;;;17.40;15.80;;;13.40;99.90;;;;;;4828504;29;20977;-64
2022/05/11 04:56:59;;;;;;;16.97;15.30;;;13.40;99.90;;;;;;4823485;29;20565;-64
2022/05/11 04:59:49;;;;;;;15.90;14.33;;;13.40;99.90;;;;;;4824497;29;20938;-65
2022/05/11 05:02:37;;;;;;;16.70;15.20;;;13.40;99.90;;;;;;4827999;29;20551;-64
2022/05/11 05:05:27;;;;;;;18.20;16.40;;;13.40;99.90;;;;;;4826658;29;20586;-64
2022/05/11 05:08:16;;;;;;;16.60;15.00;;;13.40;99.90;;;;;;4824413;29;21118;-64
2022/05/11 05:11:04;;;;;;;17.70;16.10;;;13.50;99.90;;;;;;4829600;29;20964;-64
2022/05/11 05:13:52;;;;;;;16.67;15.17;;;13.50;99.90;;;;;;4822833;29;20489;-64
2022/05/11 05:16:40;;;;;;;16.60;15.17;;;13.60;99.90;;;;;;4824273;29;20487;-64
2022/05/11 05:19:29;;;;;;;17.57;15.80;;;13.50;99.90;;;;;;4825804;29;20470;-64
2022/05/11 05:22:18;;;;;;;16.50;15.00;;;13.50;99.90;;;;;;4819916;29;20482;-64
2022/05/11 05:25:10;;;;;;;16.90;15.40;;;13.50;99.90;;;;;;4827735;29;20579;-64
2022/05/11 05:31:09;;;;;;;17.23;15.70;;;13.60;99.90;;;;;;4829174;29;20516;-65
2022/05/11 05:33:59;;;;;;;17.20;15.50;;;13.60;99.90;;;;;;4828006;29;20491;-64
2022/05/11 05:36:47;;;;;;;17.70;16.10;;;13.60;99.90;;;;;;4825233;29;20469;-64
2022/05/11 05:39:38;;;;;;;18.03;16.23;;;13.60;99.90;;;;;;4830236;29;20521;-67
2022/05/11 05:42:28;;;;;;;17.30;15.70;;;13.70;99.90;;;;;;4830340;29;21057;-66
2022/05/11 05:45:16;;;;;;;17.87;16.33;;;13.70;99.90;;;;;;4828078;29;20495;-65
2022/05/11 05:48:05;;;;;;;18.23;16.43;;;13.80;99.90;;;;;;4829548;29;20494;-65
2022/05/11 05:50:53;;;;;;;18.30;16.60;;;13.70;99.90;;;;;;4831166;29;20568;-65
2022/05/11 05:53:42;;;;;;;18.10;16.40;;;13.80;99.90;;;;;;4829978;29;21252;-65
2022/05/11 05:56:32;;;;;;;17.50;15.70;;;13.80;99.90;;;;;;4827851;29;20487;-64
2022/05/11 05:59:20;;;;;;;17.77;15.93;;;13.80;99.90;;;;;;4829332;29;20464;-64
2022/05/11 06:02:13;;;;;;;18.17;16.47;;;13.80;99.90;;;;;;4830199;29;20618;-64
2022/05/11 06:05:01;;;;;;;16.60;15.00;;;13.80;99.90;;;;;;4829235;29;20580;-64
2022/05/11 06:07:49;;;;;;;16.37;14.90;;;13.80;99.90;;;;;;4829222;29;20482;-64
2022/05/11 06:10:39;;;;;;;17.10;15.50;;;13.80;99.90;;;;;;4829220;29;20525;-64
2022/05/11 06:13:29;;;;;;;17.57;15.77;;;13.80;99.90;;;;;;4829740;29;20488;-65
2022/05/11 06:16:18;;;;;;;15.97;14.43;;;13.80;99.90;;;;;;4831128;29;20512;-65
2022/05/11 06:19:06;;;;;;;16.33;14.87;;;13.80;99.90;;;;;;4829693;29;20469;-65
2022/05/11 06:21:54;;;;;;;15.80;14.20;;;13.80;99.90;;;;;;4832160;29;20576;-65
2022/05/11 06:24:48;;;;;;;16.17;14.57;;;13.90;99.90;;;;;;4830081;29;20527;-65
2022/05/11 06:27:37;;;;;;;15.67;14.17;;;13.90;99.90;;;;;;4830961;29;21068;-65
2022/05/11 06:30:28;;;;;;;17.27;15.70;;;13.90;99.90;;;;;;4829598;29;20453;-65
2022/05/11 06:33:16;;;;;;;16.03;14.50;;;13.90;99.90;;;;;;4829925;29;20499;-65
2022/05/11 06:36:07;;;;;;;16.63;15.03;;;14.00;99.90;;;;;;4828575;29;20545;-65
2022/05/11 06:38:55;;;;;;;17.00;15.13;;;13.90;99.90;;;;;;4829295;29;20605;-65
2022/05/11 06:41:43;;;;;;;16.27;14.77;;;14.00;99.90;;;;;;4829398;29;20502;-66
2022/05/11 06:44:31;;;;;;;18.53;16.63;;;14.00;99.90;;;;;;4828864;29;20477;-68
2022/05/11 06:47:21;;;;;;;16.80;14.93;;;14.10;99.90;;;;;;4830317;29;20505;-65
2022/05/11 06:50:11;;;;;;;18.20;16.47;;;14.10;99.90;;;;;;4828218;29;20465;-65
2022/05/11 06:53:08;;;;;;;17.43;15.60;;;14.20;99.90;;;;;;4830023;29;20477;-65
2022/05/11 06:59:21;;;;;;;18.67;16.97;;;14.20;99.90;;;;;;4829019;29;20494;-65
2022/05/11 07:02:09;;;;;;;18.20;16.60;;;14.20;99.90;;;;;;4825127;29;20477;-65
2022/05/11 07:04:59;;;;;;;19.03;17.33;;;14.30;99.90;;;;;;4829385;29;20997;-65
2022/05/11 07:07:47;;;;;;;16.73;15.17;;;14.30;99.90;;;;;;4831799;29;20489;-65
2022/05/11 07:10:37;;;;;;;17.17;15.47;;;14.40;99.90;;;;;;4829755;29;20569;-65
2022/05/11 07:13:26;;;;;;;16.47;14.90;;;14.40;99.90;;;;;;4830258;29;20491;-65
2022/05/11 07:16:14;;;;;;;16.97;15.43;;;14.50;99.90;;;;;;4830433;29;21071;-65
2022/05/11 07:19:02;;;;;;;14.70;13.17;;;14.50;99.90;;;;;;4831520;29;20476;-65
2022/05/11 07:21:52;;;;;;;15.00;13.40;;;14.50;99.90;;;;;;4831860;29;21094;-65
2022/05/11 07:24:42;;;;;;;14.30;12.57;;;14.50;99.90;;;;;;4831840;29;20575;-65
2022/05/11 07:27:30;;;;;;;12.20;11.20;;;14.50;99.90;;;;;;4829278;29;21006;-65
2022/05/11 07:30:22;;;;;;;11.80;10.60;;;14.60;99.90;;;;;;4829962;29;20836;-65
2022/05/11 07:33:17;;;;;;;11.37;10.27;;;14.60;99.90;;;;;;4830294;29;20496;-65
2022/05/11 07:36:06;;;;;;;10.60;9.50;;;14.60;99.90;;;;;;4832309;29;20484;-65
2022/05/11 07:38:56;;;;;;;12.30;10.10;;;14.60;99.90;;;;;;4829553;29;20688;-65
2022/05/11 07:41:44;;;;;;;11.30;10.20;;;14.60;99.90;;;;;;4832409;29;20541;-65
2022/05/11 07:44:32;;;;;;;12.00;9.50;;;14.60;99.90;;;;;;4829942;29;20453;-66
2022/05/11 07:47:21;;;;;;;9.87;9.00;;;14.60;99.90;;;;;;4829227;29;20970;-66
2022/05/11 07:50:13;;;;;;;10.67;9.67;;;14.60;99.90;;;;;;4831854;29;21019;-66
2022/05/11 07:53:02;;;;;;;11.13;10.03;;;14.60;99.90;;;;;;4830754;29;20916;-65
2022/05/11 07:59:52;;;;;;;10.70;9.70;;;14.60;99.90;;;;;;4830585;29;20576;-66
2022/05/11 08:02:06;;;;;;;10.47;9.50;;;14.70;99.90;;;;;;4832527;29;20472;-67
2022/05/11 08:04:58;;;;;;;10.47;9.33;;;14.70;99.90;;;;;;4834676;29;20500;-67
2022/05/11 08:07:48;;;;;;;10.67;9.57;;;14.70;99.90;;;;;;4830961;29;20469;-66
2022/05/11 08:10:39;;;;;;;12.30;9.07;;;14.70;99.90;;;;;;4831510;29;20488;-66
2022/05/11 08:13:30;;;;;;;10.90;9.80;;;14.80;99.90;;;;;;4831090;29;20500;-66
2022/05/11 08:16:18;;;;;;;11.10;10.00;;;14.80;99.90;;;;;;4828797;29;20478;-66
2022/05/11 08:19:07;;;;;;;11.27;10.17;;;14.80;99.90;;;;;;4830078;29;20480;-66
2022/05/11 08:21:56;;;;;;;10.50;9.50;;;14.80;99.90;;;;;;4830704;29;20473;-64
2022/05/11 08:24:45;;;;;;;11.10;10.07;;;14.80;99.90;;;;;;4829645;29;20560;-64
2022/05/11 08:27:33;;;;;;;10.83;9.73;;;14.80;99.90;;;;;;4829474;29;20517;-65
2022/05/11 08:33:34;;;;;;;10.40;9.50;;;14.90;99.90;;;;;;4830104;29;20573;-65
2022/05/11 08:36:42;;;;;;;11.03;10.10;;;14.90;99.90;;;;;;4830321;29;20484;-66
2022/05/11 08:39:30;;;;;;;10.73;9.73;;;15.00;99.90;;;;;;4827746;29;20477;-66
2022/05/11 08:42:19;;;;;;;10.60;9.60;;;15.00;99.90;;;;;;4828384;29;20564;-66
2022/05/11 08:45:09;;;;;;;11.90;10.80;;;15.00;99.90;;;;;;4829169;29;20498;-67
2022/05/11 08:48:02;;;;;;;10.20;9.27;;;15.00;99.90;;;;;;4831205;29;20470;-65
2022/05/11 08:51:02;;;;;;;11.80;9.83;;;15.10;99.90;;;;;;4831295;29;20882;-67
2022/05/11 08:53:58;;;;;;;11.93;10.83;;;15.10;99.90;;;;;;4828706;29;20489;-65
2022/05/11 08:56:51;;;;;;;10.83;9.93;;;15.10;99.90;;;;;;4828241;29;20465;-65
2022/05/11 08:59:40;;;;;;;11.03;9.93;;;15.20;99.90;;;;;;4828776;29;20556;-67
2022/05/11 09:02:35;;;;;;;11.50;10.50;;;15.20;99.90;;;;;;4829294;29;20890;-66
2022/05/11 09:05:27;;;;;;;11.33;9.83;;;15.30;99.90;;;;;;4831674;29;20484;-66
2022/05/11 09:08:16;;;;;;;11.13;10.07;;;15.30;99.90;;;;;;4828714;29;20457;-66
2022/05/11 09:11:05;;;;;;;12.60;11.30;;;15.30;99.90;;;;;;4829609;29;21036;-66
2022/05/11 09:13:53;;;;;;;10.30;9.40;;;15.40;99.90;;;;;;4828775;29;20485;-66
2022/05/11 09:16:44;;;;;;;11.20;10.00;;;15.50;99.90;;;;;;4829933;29;20563;-66
2022/05/11 09:19:35;;;;;;;10.77;9.67;;;15.60;99.90;;;;;;4828536;29;20521;-66
2022/05/11 09:22:27;;;;;;;9.30;8.50;;;15.60;99.90;;;;;;4828356;29;20579;-66
2022/05/11 09:25:20;;;;;;;14.10;9.67;;;15.70;99.90;;;;;;4826981;29;20530;-66
2022/05/11 09:28:20;;;;;;;9.27;8.37;;;15.80;99.90;;;;;;4828918;29;20496;-66
2022/05/11 09:31:12;;;;;;;9.93;8.87;;;15.90;99.90;;;;;;4827975;29;20471;-66
2022/05/11 09:34:04;;;;;;;9.73;8.93;;;16.00;99.90;;;;;;4829536;29;20893;-67
2022/05/11 09:37:27;;;;;;;9.30;8.50;;;16.10;99.90;;;;;;4828464;29;20457;-66
2022/05/11 09:40:20;;;;;;;10.30;9.30;;;16.20;99.90;;;;;;4828333;29;20461;-66
2022/05/11 09:43:10;;;;;;;10.33;9.33;;;16.30;99.90;;;;;;4825963;29;20495;-65
2022/05/11 09:45:58;;;;;;;9.77;8.97;;;16.40;99.90;;;;;;4828096;29;21009;-66
2022/05/11 09:49:04;;;;;;;9.90;9.07;;;16.50;99.90;;;;;;4830026;29;20469;-66
2022/05/11 09:51:56;;;;;;;9.33;8.63;;;16.50;99.90;;;;;;4828864;29;20530;-66
2022/05/11 09:54:51;;;;;;;9.17;8.30;;;16.50;99.90;;;;;;4828461;29;20525;-66
2022/05/11 09:57:40;;;;;;;10.20;9.13;;;16.50;99.90;;;;;;4827885;29;20966;-66
2022/05/11 10:00:36;;;;;;;9.30;8.40;;;16.60;99.90;;;;;;4828068;29;21058;-66
2022/05/11 10:03:30;;;;;;;11.27;9.53;;;16.70;99.90;;;;;;4826262;29;20495;-66
2022/05/11 10:06:21;;;;;;;8.53;7.73;;;16.80;99.90;;;;;;4826581;29;20563;-66
2022/05/11 10:09:11;;;;;;;8.43;7.60;;;16.90;99.90;;;;;;4828508;29;20518;-66
2022/05/11 10:12:02;;;;;;;7.77;6.97;;;16.90;99.90;;;;;;4825661;29;20475;-66
2022/05/11 10:21:54;;;;;;;6.67;6.07;;;17.20;99.90;;;;;;4826564;29;20970;-66
2022/05/11 10:24:57;;;;;;;7.60;6.90;;;17.30;99.90;;;;;;4829716;29;20490;-66
2022/05/11 10:27:49;;;;;;;7.63;5.83;;;17.50;99.90;;;;;;4825509;29;20822;-65
2022/05/11 10:30:49;;;;;;;5.70;5.10;;;17.70;99.90;;;;;;4824051;29;20533;-66
2022/05/11 10:33:56;;;;;;;5.77;5.27;;;17.80;99.90;;;;;;4828265;29;20509;-66
2022/05/11 10:36:53;;;;;;;6.70;5.60;;;17.90;99.90;;;;;;4830350;29;20967;-67
2022/05/11 10:39:56;;;;;;;8.57;5.70;;;18.10;99.90;;;;;;4826752;29;20525;-67
2022/05/11 10:42:49;;;;;;;6.47;5.63;;;18.20;99.90;;;;;;4831994;29;20480;-66
2022/05/11 10:45:47;;;;;;;6.80;6.20;;;18.30;99.90;;;;;;4829350;29;20492;-65
2022/05/11 10:48:58;;;;;;;6.17;5.67;;;18.40;99.90;;;;;;4829530;29;20456;-66
2022/05/11 10:51:58;;;;;;;6.53;5.83;;;18.60;99.90;;;;;;4832347;29;20601;-65
2022/05/11 10:55:01;;;;;;;7.10;6.50;;;18.70;99.90;;;;;;4831038;29;21034;-65
2022/05/11 10:58:01;;;;;;;6.40;5.80;;;18.80;99.90;;;;;;4829813;29;20500;-66
2022/05/11 11:00:55;;;;;;;7.20;6.60;;;19.00;99.90;;;;;;4830911;29;20520;-65
2022/05/11 11:04:14;;;;;;;6.30;5.70;;;19.10;99.90;;;;;;4830130;29;20480;-65
2022/05/11 11:07:22;;;;;;;9.40;6.77;;;19.20;99.90;;;;;;4822560;29;20461;-65
2022/05/11 11:10:32;;;;;;;7.13;6.50;;;19.40;99.90;;;;;;4831905;29;20544;-64
2022/05/11 11:13:39;;;;;;;6.27;5.67;;;19.50;99.90;;;;;;4825322;29;20548;-65
2022/05/11 11:16:32;;;;;;;6.77;6.00;;;19.50;99.90;;;;;;4829743;29;21135;-65
2022/05/11 11:19:21;;;;;;;7.97;7.17;;;19.60;99.90;;;;;;4828214;29;20477;-65
2022/05/11 11:22:09;;;;;;;5.87;5.37;;;19.60;99.90;;;;;;4830237;29;20480;-65
2022/05/11 11:25:21;;;;;;;7.23;6.63;;;19.80;99.90;;;;;;4827479;29;20564;-65
2022/05/11 11:28:12;;;;;;;7.33;5.60;;;19.80;99.90;;;;;;4814756;29;20465;-65
2022/05/11 11:31:24;;;;;;;6.23;5.63;;;19.70;99.90;;;;;;4825785;29;20479;-65
2022/05/11 11:34:22;;;;;;;6.53;5.90;;;19.70;99.90;;;;;;4821409;29;21143;-65
2022/05/11 11:37:37;;;;;;;6.97;6.37;;;19.70;99.90;;;;;;4823180;29;20563;-64
2022/05/11 11:40:28;;;;;;;7.00;6.40;;;19.80;99.90;;;;;;4831366;29;20467;-64
2022/05/11 11:43:43;;;;;;;7.73;7.10;;;19.90;99.90;;;;;;4827247;29;20583;-65
2022/05/11 11:46:38;;;;;;;7.40;5.83;;;20.10;99.90;;;;;;4823709;29;21059;-64
2022/05/11 11:49:42;;;;;;;8.97;6.83;;;20.20;99.90;;;;;;4824790;29;20465;-65
2022/05/11 11:52:35;;;;;;;8.83;6.03;;;20.40;99.90;;;;;;4824660;29;20587;-65
2022/05/11 11:55:26;;;;;;;5.63;5.17;;;20.50;99.90;;;;;;4823641;29;21228;-65
2022/05/11 11:58:26;;;;;;;6.80;6.10;;;20.60;99.90;;;;;;4827734;29;20904;-65
2022/05/11 12:01:20;;;;;;;7.50;6.90;;;20.80;99.90;;;;;;4819454;29;20544;-65
2022/05/11 12:04:18;;;;;;;9.27;6.80;;;21.00;99.90;;;;;;4827036;29;20481;-65
2022/05/11 12:16:50;;;;;;;6.20;5.70;;;21.30;99.90;;;;;;4828365;29;20464;-65
2022/05/11 12:19:41;;;;;;;7.00;6.40;;;21.40;99.90;;;;;;4829686;29;20474;-65
2022/05/11 12:22:31;;;;;;;7.27;6.57;;;21.50;99.90;;;;;;4827893;29;20567;-65
2022/05/11 12:25:26;;;;;;;6.50;5.90;;;21.60;99.90;;;;;;4824026;29;21309;-65
2022/05/11 12:28:21;;;;;;;5.83;5.37;;;21.70;99.90;;;;;;4827014;29;20465;-65
2022/05/11 12:31:10;;;;;;;5.90;5.33;;;21.90;99.90;;;;;;4826678;29;20502;-65
2022/05/11 12:33:58;;;;;;;5.67;4.97;;;22.00;99.90;;;;;;4821967;29;20488;-66
2022/05/11 12:36:49;;;;;;;5.80;5.40;;;22.20;99.90;;;;;;4828283;29;20564;-65
2022/05/11 12:39:38;;;;;;;6.67;5.27;;;22.30;99.90;;;;;;4819492;29;20563;-65
2022/05/11 12:42:29;;;;;;;5.40;4.73;;;22.40;99.90;;;;;;4822685;29;20492;-65
2022/05/11 12:45:22;;;;;;;8.50;5.73;;;22.60;99.90;;;;;;4811018;29;20480;-66
2022/05/11 12:48:17;;;;;;;5.90;5.13;;;22.70;99.90;;;;;;4819248;29;21000;-66
2022/05/11 12:51:08;;;;;;;5.63;4.23;;;22.80;99.90;;;;;;4814318;29;20458;-65
2022/05/11 12:54:00;;;;;;;6.60;5.57;;;22.90;99.90;;;;;;4818125;29;21231;-65
2022/05/11 12:56:58;;;;;;;5.50;4.67;;;23.10;99.90;;;;;;4826117;29;20456;-66
2022/05/11 12:59:50;;;;;;;4.50;4.10;;;23.20;99.90;;;;;;4823762;29;20570;-66
2022/05/11 13:02:40;;;;;;;4.87;3.93;;;23.30;99.90;;;;;;4823532;29;21151;-66
2022/05/11 13:05:33;;;;;;;4.93;4.00;;;23.40;99.90;;;;;;4826553;29;20561;-66
2022/05/11 13:08:23;;;;;;;4.80;4.30;;;23.40;99.90;;;;;;4826072;29;20517;-66
2022/05/11 13:11:16;;;;;;;4.37;3.97;;;23.50;99.90;;;;;;4825295;29;20602;-66
2022/05/11 13:14:12;;;;;;;4.27;3.87;;;23.60;99.90;;;;;;4828420;29;20492;-66
2022/05/11 13:17:05;;;;;;;4.23;3.80;;;23.70;99.90;;;;;;4812040;29;20613;-66
2022/05/11 13:19:55;;;;;;;4.77;3.93;;;23.80;99.90;;;;;;4818484;29;20855;-65
2022/05/11 13:22:49;;;;;;;5.17;3.70;;;23.80;99.90;;;;;;4823218;29;20484;-66
2022/05/11 13:25:45;;;;;;;4.67;3.60;;;23.80;99.90;;;;;;4827071;29;20484;-65
2022/05/11 13:28:38;;;;;;;4.53;3.50;;;23.90;99.90;;;;;;4826993;29;22480;-65
2022/05/11 13:31:29;;;;;;;5.00;3.70;;;24.00;99.90;;;;;;4813519;29;20461;-66
2022/05/11 13:34:33;;;;;;;6.03;4.40;;;24.20;99.90;;;;;;4815020;29;22057;-66
2022/05/11 13:37:26;;;;;;;5.30;3.97;;;24.40;99.90;;;;;;4816701;29;20460;-66
2022/05/11 13:40:26;;;;;;;4.67;3.60;;;24.60;99.90;;;;;;4820866;29;20922;-65
2022/05/11 13:43:19;;;;;;;5.60;3.67;;;24.50;99.90;;;;;;4813847;29;20578;-66
2022/05/11 13:46:12;;;;;;;4.57;3.63;;;24.60;99.90;;;;;;4817041;29;20965;-66
2022/05/11 13:49:24;;;;;;;4.13;3.13;;;24.60;99.90;;;;;;4825940;29;20461;-66
2022/05/11 13:52:32;;;;;;;5.57;3.60;;;24.70;99.90;;;;;;4824356;29;21012;-66
2022/05/11 13:55:30;;;;;;;4.67;3.80;;;24.70;99.90;;;;;;4822928;29;20638;-66
2022/05/11 13:58:23;;;;;;;4.07;3.20;;;24.60;99.90;;;;;;4818129;29;20460;-65
2022/05/11 14:01:16;;;;;;;4.03;3.50;;;24.60;99.90;;;;;;4814562;29;20884;-67
2022/05/11 14:04:07;;;;;;;8.00;3.30;;;24.70;99.90;;;;;;4819568;29;20534;-65
2022/05/11 14:07:01;;;;;;;3.43;3.13;;;24.60;99.90;;;;;;4822744;29;20552;-66
2022/05/11 14:09:49;;;;;;;3.50;3.07;;;24.50;99.90;;;;;;4820117;29;21062;-66
2022/05/11 14:12:38;;;;;;;5.63;3.57;;;24.60;99.90;;;;;;4818217;29;20476;-66
2022/05/11 14:15:26;;;;;;;5.10;3.00;;;24.80;99.90;;;;;;4825064;29;20552;-66
2022/05/11 14:18:20;;;;;;;6.23;3.60;;;24.80;99.90;;;;;;4820301;29;20472;-66
2022/05/11 14:21:09;;;;;;;3.20;2.90;;;24.80;99.90;;;;;;4832973;29;20469;-67
2022/05/11 14:23:57;;;;;;;5.60;2.87;;;25.00;99.90;;;;;;4829174;29;20504;-66
2022/05/11 14:26:46;;;;;;;4.90;2.53;;;25.20;99.90;;;;;;4825942;29;20830;-66
2022/05/11 14:29:34;;;;;;;3.00;2.80;;;25.60;99.90;;;;;;4831574;29;20493;-66
2022/05/11 14:32:27;;;;;;;7.10;3.00;;;26.50;99.90;;;;;;4830439;29;20605;-66
2022/05/11 14:35:26;;;;;;;4.50;2.43;;;26.80;99.90;;;;;;4832847;29;20575;-67
2022/05/11 14:38:15;;;;;;;5.27;2.60;;;26.90;99.90;;;;;;4831342;29;20549;-67
2022/05/11 14:41:03;;;;;;;4.37;3.07;;;26.70;99.90;;;;;;4831319;29;20475;-67
2022/05/11 14:43:51;;;;;;;2.43;2.23;;;26.50;99.90;;;;;;4829878;29;20587;-67
2022/05/11 14:46:41;;;;;;;2.70;2.50;;;26.40;99.90;;;;;;4832273;29;20540;-67
2022/05/11 14:49:30;;;;;;;3.03;2.60;;;26.20;99.90;;;;;;4832806;29;20554;-67
2022/05/11 14:52:19;;;;;;;6.80;3.23;;;26.40;99.90;;;;;;4830115;29;20512;-67
2022/05/11 14:55:08;;;;;;;3.13;2.70;;;26.40;99.90;;;;;;4830922;29;20481;-67
2022/05/11 15:04:19;;;;;;;7.47;3.07;;;26.20;99.90;;;;;;4832694;29;20480;-66
2022/05/11 15:07:09;;;;;;;3.67;2.60;;;26.30;99.90;;;;;;4833603;29;20467;-67
2022/05/11 15:09:58;;;;;;;3.27;2.33;;;26.40;99.90;;;;;;4832245;29;20840;-67
2022/05/11 15:15:53;;;;;;;6.30;3.00;;;26.40;99.90;;;;;;4832090;29;20709;-66
2022/05/11 15:18:41;;;;;;;2.63;2.20;;;26.30;99.90;;;;;;4832448;29;20471;-66
2022/05/11 15:21:29;;;;;;;3.47;2.50;;;26.00;99.90;;;;;;4832011;29;20567;-66
2022/05/11 15:24:17;;;;;;;3.13;2.40;;;26.00;99.90;;;;;;4828305;29;20484;-66
2022/05/11 15:27:07;;;;;;;4.30;2.20;;;25.80;99.90;;;;;;4830495;29;20622;-66
2022/05/11 15:29:58;;;;;;;3.73;2.70;;;25.80;99.90;;;;;;4826208;29;20483;-66